Time;durP1;ratioP1;P1;durP2;ratioP2;P2;SDS_P1;SDS_P2;PMS_P1;PMS_P2;Temp;Humidity;BMP_temperature;BMP_pressure;BME280_temperature;BME280_humidity;BME280_pressure;Samples;Min_cycle;Max_cycle;Signal;HPM_P1;HPM_P2
2022/01/25 00:28:46;;;;;;;0.60;0.60;;;;;;;;;;5069941;28;20611;-67
2022/01/25 00:33:38;;;;;;;0.60;0.60;;;;;;;;;;5071827;28;20622;-66
2022/01/25 00:36:06;;;;;;;0.60;0.60;;;;;;;;;;5071615;28;20437;-65
2022/01/25 00:38:32;;;;;;;0.60;0.60;;;;;;;;;;5070950;28;20175;-65
2022/01/25 00:40:57;;;;;;;0.70;0.70;;;;;;;;;;5071007;28;20175;-65
2022/01/25 00:43:26;;;;;;;0.60;0.60;;;;;;;;;;5052493;28;20433;-65
2022/01/25 00:45:54;;;;;;;0.70;0.70;;;;;;;;;;5070921;28;20483;-66
2022/01/25 00:48:31;;;;;;;0.50;0.50;;;;;;;;;;5071014;28;20175;-66
2022/01/25 00:51:15;;;;;;;0.60;0.60;;;;;;;;;;5070889;28;20551;-65
2022/01/25 00:56:23;;;;;;;0.60;0.60;;;;;;;;;;5071109;28;20172;-66
2022/01/25 00:58:49;;;;;;;0.60;0.60;;;;;;;;;;5070964;28;20581;-65
2022/01/25 01:01:17;;;;;;;0.60;0.60;;;;;;;;;;5070429;28;20657;-65
2022/01/25 01:03:43;;;;;;;0.63;0.63;;;;;;;;;;5055474;28;20216;-67
2022/01/25 01:06:09;;;;;;;0.60;0.60;;;;;;;;;;5087821;22;20701;-63
2022/01/25 01:08:35;;;;;;;0.50;0.50;;;;;;;;;;5070441;28;21112;-63
2022/01/25 01:11:04;;;;;;;0.60;0.60;;;;;;;;;;5070896;28;20445;-63
2022/01/25 01:43:30;;;;;;;0.60;0.60;;;;;;;;;;5074269;28;20197;-63
2022/01/25 01:46:19;;;;;;;0.60;0.60;;;;;;;;;;5073948;28;20563;-63
2022/01/25 01:51:17;;;;;;;0.70;0.70;;;;;;;;;;5074189;28;20211;-63
2022/01/25 01:53:44;;;;;;;0.70;0.70;;;;;;;;;;5073588;28;20589;-62
2022/01/25 01:56:10;;;;;;;0.60;0.60;;;;;;;;;;5073444;28;20195;-63
2022/01/25 01:58:36;;;;;;;0.60;0.60;;;;;;;;;;5073883;28;20240;-63
2022/01/25 02:01:04;;;;;;;0.70;0.70;;;;;;;;;;5073682;28;20179;-63
2022/01/25 02:03:30;;;;;;;0.70;0.70;;;;;;;;;;5073550;28;20210;-63
2022/01/25 02:05:56;;;;;;;0.60;0.60;;;;;;;;;;5073352;28;20242;-63
2022/01/25 02:08:22;;;;;;;0.60;0.60;;;;;;;;;;5055671;28;20666;-63
2022/01/25 02:10:48;;;;;;;0.70;0.70;;;;;;;;;;5073313;28;20218;-62
2022/01/25 02:13:14;;;;;;;0.70;0.70;;;;;;;;;;5073534;28;20753;-63
2022/01/25 02:15:44;;;;;;;0.60;0.60;;;;;;;;;;5073790;28;21013;-63
2022/01/25 02:23:38;;;;;;;0.60;0.60;;;;;;;;;;5073563;28;20217;-63
2022/01/25 02:26:05;;;;;;;0.80;0.80;;;;;;;;;;5073148;28;20226;-63
2022/01/25 02:28:33;;;;;;;0.60;0.60;;;;;;;;;;5073120;28;20184;-63
2022/01/25 02:31:00;;;;;;;0.70;0.70;;;;;;;;;;5061390;28;20191;-63
2022/01/25 02:33:26;;;;;;;0.60;0.60;;;;;;;;;;5074096;28;20267;-63
2022/01/25 02:35:53;;;;;;;0.50;0.50;;;;;;;;;;5072501;28;20218;-63
2022/01/25 02:38:24;;;;;;;0.60;0.60;;;;;;;;;;5073002;28;20206;-62
2022/01/25 02:40:50;;;;;;;0.65;0.65;;;;;;;;;;5073185;28;20657;-63
2022/01/25 02:43:18;;;;;;;0.60;0.60;;;;;;;;;;5072758;28;20211;-63
2022/01/25 02:45:48;;;;;;;0.60;0.60;;;;;;;;;;5072164;28;20195;-63
2022/01/25 02:48:30;;;;;;;0.60;0.60;;;;;;;;;;5072897;28;20187;-63
2022/01/25 02:50:56;;;;;;;0.60;0.60;;;;;;;;;;5073038;28;20666;-63
2022/01/25 02:53:22;;;;;;;0.70;0.70;;;;;;;;;;5072643;28;20262;-63
2022/01/25 02:55:48;;;;;;;0.70;0.70;;;;;;;;;;5072852;28;20689;-63
2022/01/25 02:58:14;;;;;;;0.70;0.70;;;;;;;;;;5054450;28;20422;-63
2022/01/25 03:00:40;;;;;;;0.70;0.70;;;;;;;;;;5072556;28;20780;-63
2022/01/25 03:03:06;;;;;;;0.60;0.60;;;;;;;;;;5054576;28;20425;-63
2022/01/25 03:05:32;;;;;;;0.60;0.60;;;;;;;;;;5072298;28;20469;-63
2022/01/25 03:07:58;;;;;;;0.50;0.50;;;;;;;;;;5072657;28;20585;-63
2022/01/25 03:10:24;;;;;;;0.60;0.60;;;;;;;;;;5058452;28;20281;-63
2022/01/25 03:12:54;;;;;;;0.68;0.68;;;;;;;;;;5087706;28;20447;-63
2022/01/25 03:18:00;;;;;;;0.60;0.60;;;;;;;;;;5072313;28;20232;-63
2022/01/25 03:23:19;;;;;;;0.60;0.60;;;;;;;;;;5072379;28;20201;-63
2022/01/25 03:25:47;;;;;;;0.60;0.60;;;;;;;;;;5071994;28;20191;-63
2022/01/25 03:28:13;;;;;;;0.60;0.60;;;;;;;;;;5072281;28;20167;-63
2022/01/25 03:30:39;;;;;;;0.60;0.60;;;;;;;;;;5071778;28;20256;-63
2022/01/25 03:33:05;;;;;;;0.60;0.60;;;;;;;;;;5054005;28;20171;-63
2022/01/25 03:35:31;;;;;;;0.60;0.60;;;;;;;;;;5072036;28;20441;-63
2022/01/25 03:37:57;;;;;;;0.60;0.60;;;;;;;;;;5072247;28;20945;-63
2022/01/25 03:40:23;;;;;;;0.67;0.67;;;;;;;;;;5072043;28;20207;-63
2022/01/25 03:42:49;;;;;;;0.70;0.70;;;;;;;;;;5071483;28;20428;-63
2022/01/25 03:45:18;;;;;;;0.60;0.60;;;;;;;;;;5071806;28;20198;-63
2022/01/25 03:47:57;;;;;;;0.70;0.70;;;;;;;;;;5071121;28;20422;-63
2022/01/25 03:50:24;;;;;;;0.70;0.70;;;;;;;;;;5071784;28;20195;-63
2022/01/25 03:52:50;;;;;;;0.50;0.50;;;;;;;;;;5071290;28;20668;-63
2022/01/25 03:55:16;;;;;;;0.60;0.60;;;;;;;;;;5071770;28;20276;-63
2022/01/25 03:57:42;;;;;;;0.60;0.60;;;;;;;;;;5071606;28;20194;-63
2022/01/25 04:00:10;;;;;;;0.60;0.60;;;;;;;;;;5071410;28;20179;-63
2022/01/25 04:02:39;;;;;;;0.60;0.60;;;;;;;;;;5071319;28;20432;-63
2022/01/25 04:05:08;;;;;;;0.65;0.65;;;;;;;;;;5071425;28;20256;-63
2022/01/25 04:07:45;;;;;;;0.70;0.70;;;;;;;;;;5071629;28;20171;-63
2022/01/25 04:10:13;;;;;;;0.60;0.60;;;;;;;;;;5071483;28;20185;-63
2022/01/25 04:12:39;;;;;;;0.63;0.63;;;;;;;;;;5070752;28;20178;-63
2022/01/25 04:15:05;;;;;;;0.60;0.60;;;;;;;;;;5071608;28;20195;-63
2022/01/25 04:17:33;;;;;;;0.60;0.60;;;;;;;;;;5071471;28;20182;-63
2022/01/25 04:25:25;;;;;;;0.50;0.50;;;;;;;;;;5057259;28;20260;-63
2022/01/25 04:27:51;;;;;;;0.60;0.60;;;;;;;;;;5071410;28;20180;-63
2022/01/25 04:30:17;;;;;;;0.63;0.63;;;;;;;;;;5071324;28;20228;-63
2022/01/25 04:33:04;;;;;;;0.70;0.70;;;;;;;;;;5070518;28;20487;-63
2022/01/25 04:49:14;;;;;;;0.60;0.60;;;;;;;;;;5070796;28;20232;-62
2022/01/25 04:57:42;;;;;;;0.70;0.70;;;;;;;;;;5071120;28;20195;-62
2022/01/25 04:59:39;;;;;;;0.60;0.60;;;;;;;;;;5064694;28;20183;-62
2022/01/25 05:02:13;;;;;;;0.60;0.60;;;;;;;;;;5074577;28;20182;-62
2022/01/25 05:04:51;;;;;;;0.70;0.70;;;;;;;;;;5074303;28;20171;-62
2022/01/25 05:10:03;;;;;;;0.70;0.70;;;;;;;;;;5074791;28;20187;-62
2022/01/25 05:12:37;;;;;;;0.60;0.60;;;;;;;;;;5074687;28;20236;-63
2022/01/25 05:18:04;;;;;;;0.60;0.60;;;;;;;;;;5075075;28;20179;-63
2022/01/25 05:23:14;;;;;;;0.70;0.70;;;;;;;;;;5074663;28;20232;-63
2022/01/25 05:25:40;;;;;;;0.70;0.70;;;;;;;;;;5074480;28;20195;-63
2022/01/25 05:28:06;;;;;;;0.50;0.50;;;;;;;;;;5074661;28;20424;-63
2022/01/25 05:30:32;;;;;;;0.63;0.63;;;;;;;;;;5074588;28;20467;-63
2022/01/25 05:32:58;;;;;;;0.60;0.60;;;;;;;;;;5074368;28;20671;-63
2022/01/25 05:35:24;;;;;;;0.70;0.70;;;;;;;;;;5074423;28;20200;-63
2022/01/25 05:37:50;;;;;;;0.60;0.60;;;;;;;;;;5074281;28;20175;-63
2022/01/25 05:40:27;;;;;;;0.50;0.50;;;;;;;;;;5074635;28;20412;-63
2022/01/25 05:48:26;;;;;;;0.70;0.70;;;;;;;;;;5058806;28;20182;-63
2022/01/25 05:50:52;;;;;;;0.70;0.70;;;;;;;;;;5073418;28;20238;-63
2022/01/25 05:53:18;;;;;;;0.60;0.60;;;;;;;;;;5073795;28;20178;-63
2022/01/25 05:55:45;;;;;;;0.70;0.70;;;;;;;;;;5073841;28;20597;-63
2022/01/25 05:58:11;;;;;;;0.70;0.70;;;;;;;;;;5073962;28;20410;-63
2022/01/25 06:00:37;;;;;;;0.68;0.68;;;;;;;;;;5055787;28;20174;-62
2022/01/25 06:03:05;;;;;;;0.60;0.60;;;;;;;;;;5076617;28;20207;-63
2022/01/25 06:05:31;;;;;;;0.60;0.60;;;;;;;;;;5073127;28;20207;-63
2022/01/25 06:07:57;;;;;;;0.60;0.60;;;;;;;;;;5072663;28;20219;-63
2022/01/25 06:10:23;;;;;;;0.50;0.50;;;;;;;;;;5072792;28;20192;-63
2022/01/25 06:12:49;;;;;;;0.60;0.60;;;;;;;;;;5071640;28;20754;-62
2022/01/25 06:15:15;;;;;;;0.60;0.60;;;;;;;;;;5063746;28;20226;-63
2022/01/25 06:17:41;;;;;;;0.60;0.60;;;;;;;;;;5073731;28;20895;-63
2022/01/25 06:20:08;;;;;;;0.50;0.50;;;;;;;;;;5073240;28;20183;-63
2022/01/25 06:22:34;;;;;;;0.60;0.60;;;;;;;;;;5073219;28;20193;-63
2022/01/25 06:25:00;;;;;;;0.60;0.60;;;;;;;;;;5073655;28;20210;-63
2022/01/25 06:27:26;;;;;;;0.60;0.60;;;;;;;;;;5073438;28;20183;-63
2022/01/25 06:29:52;;;;;;;0.60;0.60;;;;;;;;;;5073720;28;20224;-63
2022/01/25 06:32:19;;;;;;;0.70;0.70;;;;;;;;;;5072851;28;20199;-63
2022/01/25 06:34:45;;;;;;;0.60;0.60;;;;;;;;;;5064149;28;20449;-63
2022/01/25 06:37:12;;;;;;;0.50;0.50;;;;;;;;;;5073168;28;20183;-63
2022/01/25 06:39:39;;;;;;;0.55;0.55;;;;;;;;;;5072912;28;20257;-63
2022/01/25 06:42:05;;;;;;;0.60;0.60;;;;;;;;;;5073137;28;20296;-63
2022/01/25 06:44:34;;;;;;;0.70;0.70;;;;;;;;;;5072522;28;20666;-62
2022/01/25 06:47:00;;;;;;;0.60;0.60;;;;;;;;;;5072689;28;20187;-63
2022/01/25 06:49:26;;;;;;;0.60;0.60;;;;;;;;;;5072912;28;20191;-63
2022/01/25 06:51:52;;;;;;;0.60;0.60;;;;;;;;;;5072748;28;20217;-63
2022/01/25 06:54:17;;;;;;;0.67;0.67;;;;;;;;;;5072421;28;20454;-63
2022/01/25 06:56:43;;;;;;;0.60;0.60;;;;;;;;;;5055001;28;20438;-63
2022/01/25 06:59:09;;;;;;;0.60;0.60;;;;;;;;;;5072364;28;20456;-63
2022/01/25 07:01:35;;;;;;;0.60;0.60;;;;;;;;;;5072364;28;20763;-63
2022/01/25 07:04:01;;;;;;;0.60;0.60;;;;;;;;;;5072074;28;20413;-63
2022/01/25 07:06:28;;;;;;;0.60;0.60;;;;;;;;;;5073466;28;20221;-63
2022/01/25 07:08:54;;;;;;;0.60;0.60;;;;;;;;;;5072172;28;20195;-63
2022/01/25 07:11:20;;;;;;;0.50;0.50;;;;;;;;;;5072348;28;20257;-63
2022/01/25 07:13:47;;;;;;;0.60;0.60;;;;;;;;;;5071112;28;20584;-63
2022/01/25 07:16:13;;;;;;;0.60;0.60;;;;;;;;;;5071866;28;20199;-63
2022/01/25 07:18:39;;;;;;;0.60;0.60;;;;;;;;;;5072274;28;20189;-63
2022/01/25 07:21:05;;;;;;;0.60;0.60;;;;;;;;;;5072004;28;20183;-62
2022/01/25 07:23:31;;;;;;;0.60;0.60;;;;;;;;;;5071536;28;20421;-63
2022/01/25 07:25:57;;;;;;;0.60;0.60;;;;;;;;;;5071842;28;20527;-62
2022/01/25 07:28:23;;;;;;;0.60;0.60;;;;;;;;;;5072022;28;20409;-63
2022/01/25 07:30:49;;;;;;;0.60;0.60;;;;;;;;;;5071887;28;20698;-63
2022/01/25 07:33:15;;;;;;;0.60;0.60;;;;;;;;;;5071819;28;20444;-63
2022/01/25 07:35:41;;;;;;;0.60;0.60;;;;;;;;;;5064756;28;20195;-63
2022/01/25 07:38:07;;;;;;;0.50;0.50;;;;;;;;;;5071489;28;20924;-63
2022/01/25 07:40:35;;;;;;;0.60;0.60;;;;;;;;;;5064589;28;20218;-63
2022/01/25 07:43:01;;;;;;;0.60;0.60;;;;;;;;;;5071236;28;20184;-63
2022/01/25 07:45:34;;;;;;;0.60;0.60;;;;;;;;;;5071337;28;20294;-63
2022/01/25 07:48:00;;;;;;;0.60;0.60;;;;;;;;;;5071950;28;20182;-63
2022/01/25 07:50:26;;;;;;;0.60;0.60;;;;;;;;;;5071524;28;20183;-63
2022/01/25 07:52:54;;;;;;;0.60;0.60;;;;;;;;;;5070380;28;20406;-63
2022/01/25 07:55:20;;;;;;;0.70;0.70;;;;;;;;;;5071240;28;20202;-63
2022/01/25 07:57:46;;;;;;;0.70;0.70;;;;;;;;;;5071236;28;20178;-65
2022/01/25 08:00:12;;;;;;;0.70;0.70;;;;;;;;;;5071906;28;20641;-65
2022/01/25 08:02:38;;;;;;;0.50;0.50;;;;;;;;;;5071119;28;20425;-62
2022/01/25 08:05:04;;;;;;;0.60;0.60;;;;;;;;;;5071547;28;20310;-62
2022/01/25 08:07:30;;;;;;;0.50;0.50;;;;;;;;;;5069749;28;20417;-62
2022/01/25 08:09:56;;;;;;;0.60;0.60;;;;;;;;;;5070800;28;20183;-62
2022/01/25 08:12:22;;;;;;;0.70;0.70;;;;;;;;;;5070917;28;20244;-62
2022/01/25 08:14:48;;;;;;;0.60;0.60;;;;;;;;;;5071364;28;20409;-62
2022/01/25 08:17:16;;;;;;;0.57;0.57;;;;;;;;;;5071210;28;20415;-62
2022/01/25 08:19:44;;;;;;;0.60;0.60;;;;;;;;;;5071553;28;20170;-62
2022/01/25 08:22:10;;;;;;;0.60;0.60;;;;;;;;;;5071100;28;20171;-63
2022/01/25 08:24:36;;;;;;;0.60;0.60;;;;;;;;;;5071113;28;20228;-63
2022/01/25 08:27:02;;;;;;;0.70;0.70;;;;;;;;;;5070590;28;20436;-63
2022/01/25 08:29:28;;;;;;;0.50;0.50;;;;;;;;;;5071473;28;20410;-63
2022/01/25 08:31:54;;;;;;;0.60;0.60;;;;;;;;;;5071208;28;20548;-63
2022/01/25 08:34:20;;;;;;;0.60;0.60;;;;;;;;;;5069256;28;20213;-63
2022/01/25 08:36:46;;;;;;;0.60;0.60;;;;;;;;;;5070901;28;20436;-63
2022/01/25 08:39:12;;;;;;;0.65;0.65;;;;;;;;;;5071329;28;20409;-63
2022/01/25 08:41:38;;;;;;;0.60;0.60;;;;;;;;;;5071321;28;20194;-63
2022/01/25 08:44:04;;;;;;;0.60;0.60;;;;;;;;;;5070694;28;20175;-63
2022/01/25 08:46:30;;;;;;;0.60;0.60;;;;;;;;;;5071369;28;20201;-63
2022/01/25 08:48:56;;;;;;;0.60;0.60;;;;;;;;;;5070998;28;20186;-63
2022/01/25 08:51:22;;;;;;;0.70;0.70;;;;;;;;;;5071081;28;20199;-63
2022/01/25 08:53:48;;;;;;;0.60;0.60;;;;;;;;;;5070980;28;20436;-63
2022/01/25 08:56:14;;;;;;;0.60;0.60;;;;;;;;;;5070809;28;20233;-63
2022/01/25 08:58:41;;;;;;;0.60;0.60;;;;;;;;;;5071383;28;20542;-63
2022/01/25 09:01:07;;;;;;;0.57;0.57;;;;;;;;;;5070933;28;20179;-63
2022/01/25 09:03:33;;;;;;;0.60;0.60;;;;;;;;;;5070952;28;20220;-63
2022/01/25 09:05:59;;;;;;;0.67;0.67;;;;;;;;;;5070379;28;20473;-63
2022/01/25 09:08:28;;;;;;;0.65;0.65;;;;;;;;;;5071375;28;20405;-63
2022/01/25 09:10:58;;;;;;;0.60;0.60;;;;;;;;;;5071547;28;20278;-63
2022/01/25 09:13:24;;;;;;;0.60;0.60;;;;;;;;;;5070618;28;20194;-63
2022/01/25 09:15:50;;;;;;;0.60;0.60;;;;;;;;;;5070861;28;20198;-63
2022/01/25 09:18:17;;;;;;;0.60;0.60;;;;;;;;;;5070580;28;20172;-63
2022/01/25 09:20:43;;;;;;;0.60;0.60;;;;;;;;;;5070916;28;20440;-63
2022/01/25 09:23:09;;;;;;;0.57;0.57;;;;;;;;;;5070705;28;20175;-63
2022/01/25 09:25:35;;;;;;;0.60;0.60;;;;;;;;;;5070495;28;20202;-63
2022/01/25 09:28:01;;;;;;;0.60;0.60;;;;;;;;;;5070476;28;21130;-63
2022/01/25 09:30:28;;;;;;;0.50;0.50;;;;;;;;;;5070863;28;20171;-63
2022/01/25 09:32:54;;;;;;;0.60;0.60;;;;;;;;;;5070645;28;20312;-63
2022/01/25 09:35:20;;;;;;;0.63;0.63;;;;;;;;;;5070770;28;20237;-63
2022/01/25 09:37:47;;;;;;;0.60;0.60;;;;;;;;;;5070432;28;20682;-63
2022/01/25 09:40:14;;;;;;;0.70;0.70;;;;;;;;;;5070320;28;20398;-63
2022/01/25 09:42:40;;;;;;;0.60;0.60;;;;;;;;;;5070446;28;20209;-63
2022/01/25 09:45:07;;;;;;;0.60;0.60;;;;;;;;;;5070648;28;20678;-63
2022/01/25 09:47:33;;;;;;;0.50;0.50;;;;;;;;;;5073355;28;20182;-63
2022/01/25 09:49:59;;;;;;;0.60;0.60;;;;;;;;;;5073645;28;20179;-64
2022/01/25 09:52:25;;;;;;;0.60;0.60;;;;;;;;;;5073675;28;20461;-63
2022/01/25 09:54:54;;;;;;;0.60;0.60;;;;;;;;;;5073634;28;20665;-63
2022/01/25 09:57:21;;;;;;;0.60;0.60;;;;;;;;;;5074238;28;20414;-63
2022/01/25 09:59:47;;;;;;;0.50;0.50;;;;;;;;;;5074052;28;20171;-63
2022/01/25 10:02:33;;;;;;;0.60;0.60;;;;;;;;;;5073733;28;20181;-63
2022/01/25 10:05:08;;;;;;;0.52;0.52;;;;;;;;;;5074112;28;20457;-63
2022/01/25 10:07:34;;;;;;;0.60;0.60;;;;;;;;;;5074082;28;20186;-63
2022/01/25 10:09:59;;;;;;;0.60;0.60;;;;;;;;;;5074409;28;20175;-63
2022/01/25 10:12:25;;;;;;;0.50;0.50;;;;;;;;;;5073570;28;20515;-63
2022/01/25 10:14:55;;;;;;;0.60;0.60;;;;;;;;;;5073465;28;20428;-63
2022/01/25 10:17:31;;;;;;;0.60;0.60;;;;;;;;;;5073914;28;20408;-63
2022/01/25 10:19:57;;;;;;;0.55;0.55;;;;;;;;;;5074153;28;20538;-63
2022/01/25 10:22:23;;;;;;;0.50;0.50;;;;;;;;;;5073950;28;20176;-63
2022/01/25 10:24:49;;;;;;;0.60;0.60;;;;;;;;;;5072547;28;20410;-63
2022/01/25 10:27:15;;;;;;;0.50;0.50;;;;;;;;;;5073732;28;20221;-63
2022/01/25 10:29:41;;;;;;;0.50;0.50;;;;;;;;;;5073818;28;20409;-63
2022/01/25 10:32:09;;;;;;;0.60;0.60;;;;;;;;;;5073462;28;20462;-63
2022/01/25 10:34:41;;;;;;;0.60;0.60;;;;;;;;;;5073401;28;20518;-63
2022/01/25 10:37:11;;;;;;;0.50;0.50;;;;;;;;;;5072414;28;20183;-63
2022/01/25 10:39:40;;;;;;;0.50;0.50;;;;;;;;;;5073445;28;20175;-63
2022/01/25 10:42:08;;;;;;;0.60;0.60;;;;;;;;;;5073642;28;20228;-63
2022/01/25 10:44:53;;;;;;;0.60;0.60;;;;;;;;;;5073380;28;20181;-63
2022/01/25 10:47:36;;;;;;;0.50;0.50;;;;;;;;;;5073060;28;20170;-63
2022/01/25 10:50:11;;;;;;;0.50;0.50;;;;;;;;;;5073506;28;20193;-63
2022/01/25 10:52:37;;;;;;;0.50;0.50;;;;;;;;;;5073023;28;20200;-63
2022/01/25 10:55:07;;;;;;;0.40;0.40;;;;;;;;;;5073083;28;20198;-63
2022/01/25 10:57:33;;;;;;;0.60;0.60;;;;;;;;;;5072305;28;20564;-63
2022/01/25 11:00:01;;;;;;;0.50;0.50;;;;;;;;;;5073110;28;20532;-62
2022/01/25 11:02:27;;;;;;;0.50;0.50;;;;;;;;;;5072724;28;20235;-63
2022/01/25 11:05:04;;;;;;;0.60;0.60;;;;;;;;;;5071186;28;20220;-63
2022/01/25 11:07:37;;;;;;;0.50;0.50;;;;;;;;;;5072587;28;20656;-63
2022/01/25 11:10:03;;;;;;;0.50;0.50;;;;;;;;;;5072651;28;20181;-63
2022/01/25 11:12:36;;;;;;;0.50;0.50;;;;;;;;;;5072597;28;20237;-63
2022/01/25 11:15:02;;;;;;;0.60;0.60;;;;;;;;;;5072556;28;20195;-63
2022/01/25 11:17:29;;;;;;;0.50;0.50;;;;;;;;;;5072569;28;20631;-63
2022/01/25 11:19:55;;;;;;;0.50;0.50;;;;;;;;;;5072259;28;20229;-63
2022/01/25 11:22:21;;;;;;;0.50;0.50;;;;;;;;;;5071438;28;20178;-63
2022/01/25 11:25:08;;;;;;;0.50;0.50;;;;;;;;;;5072777;28;20225;-64
2022/01/25 11:27:34;;;;;;;0.40;0.40;;;;;;;;;;5072510;28;20206;-63
2022/01/25 11:30:10;;;;;;;0.40;0.40;;;;;;;;;;5072688;28;20167;-64
2022/01/25 11:32:41;;;;;;;0.40;0.40;;;;;;;;;;5071923;28;20601;-63
2022/01/25 11:35:09;;;;;;;0.40;0.40;;;;;;;;;;5072258;28;20430;-64
2022/01/25 11:37:37;;;;;;;0.30;0.30;;;;;;;;;;5072115;28;20421;-64
2022/01/25 11:40:04;;;;;;;0.40;0.40;;;;;;;;;;5071946;28;20416;-64
2022/01/25 11:42:36;;;;;;;0.40;0.40;;;;;;;;;;5071435;28;20410;-64
2022/01/25 11:45:02;;;;;;;0.40;0.40;;;;;;;;;;5072030;28;20420;-64
2022/01/25 11:47:32;;;;;;;0.40;0.40;;;;;;;;;;5071905;28;20388;-64
2022/01/25 11:50:03;;;;;;;0.40;0.40;;;;;;;;;;5071368;28;20406;-64
2022/01/25 11:52:30;;;;;;;0.40;0.40;;;;;;;;;;5070427;28;20925;-64
2022/01/25 11:55:35;;;;;;;0.40;0.40;;;;;;;;;;5071436;28;21004;-64
2022/01/25 11:58:06;;;;;;;0.40;0.40;;;;;;;;;;5009975;28;20546;-64
2022/01/25 12:00:50;;;;;;;0.40;0.40;;;;;;;;;;5009968;28;20389;-64
2022/01/25 12:03:22;;;;;;;0.37;0.37;;;;;;;;;;5049101;28;20416;-64
2022/01/25 12:05:53;;;;;;;0.30;0.30;;;;;;;;;;5070756;28;20514;-64
2022/01/25 12:08:27;;;;;;;0.40;0.40;;;;;;;;;;5071305;28;20401;-64
2022/01/25 12:10:59;;;;;;;0.40;0.40;;;;;;;;;;5071653;28;20456;-64
2022/01/25 12:13:29;;;;;;;0.40;0.40;;;;;;;;;;5071470;28;20372;-63
2022/01/25 12:16:14;;;;;;;0.40;0.40;;;;;;;;;;5070855;28;20432;-63
2022/01/25 12:18:57;;;;;;;0.40;0.40;;;;;;;;;;5071628;28;20408;-63
2022/01/25 12:21:54;;;;;;;0.40;0.40;;;;;;;;;;5071751;28;20413;-64
2022/01/25 12:24:24;;;;;;;0.40;0.40;;;;;;;;;;5071401;28;20461;-63
2022/01/25 12:29:47;;;;;;;0.40;0.40;;;;;;;;;;5071128;28;20378;-63
2022/01/25 12:32:35;;;;;;;0.40;0.40;;;;;;;;;;5071285;28;20555;-63
2022/01/25 12:35:17;;;;;;;0.40;0.40;;;;;;;;;;5071458;28;20436;-63
2022/01/25 12:37:43;;;;;;;0.40;0.40;;;;;;;;;;5071421;28;20782;-63
2022/01/25 12:40:25;;;;;;;0.40;0.40;;;;;;;;;;5071519;28;20600;-63
2022/01/25 12:42:55;;;;;;;0.50;0.50;;;;;;;;;;5071183;28;20376;-63
2022/01/25 12:45:22;;;;;;;0.40;0.40;;;;;;;;;;5071167;28;20240;-63
2022/01/25 12:47:58;;;;;;;0.40;0.40;;;;;;;;;;5071283;28;20190;-63
2022/01/25 12:50:24;;;;;;;0.45;0.45;;;;;;;;;;5071051;28;20540;-63
2022/01/25 12:52:51;;;;;;;0.40;0.40;;;;;;;;;;5070720;28;20175;-63
2022/01/25 12:55:22;;;;;;;0.50;0.50;;;;;;;;;;5070928;28;20590;-63
2022/01/25 12:57:48;;;;;;;0.40;0.40;;;;;;;;;;5071078;28;20179;-63
2022/01/25 13:00:15;;;;;;;0.40;0.40;;;;;;;;;;5070937;28;20175;-63
2022/01/25 13:02:41;;;;;;;0.50;0.50;;;;;;;;;;5070722;28;20176;-63
2022/01/25 13:05:14;;;;;;;0.50;0.50;;;;;;;;;;5070786;28;20758;-63
2022/01/25 13:07:40;;;;;;;0.47;0.47;;;;;;;;;;5071907;28;20171;-63
2022/01/25 13:10:10;;;;;;;0.50;0.50;;;;;;;;;;5071006;28;20314;-63
2022/01/25 13:12:47;;;;;;;0.50;0.50;;;;;;;;;;5070688;28;20445;-63
2022/01/25 13:15:38;;;;;;;0.40;0.40;;;;;;;;;;5071121;28;20210;-63
2022/01/25 13:18:11;;;;;;;0.50;0.50;;;;;;;;;;5071133;28;20303;-63
2022/01/25 13:20:37;;;;;;;0.50;0.50;;;;;;;;;;5070641;28;20199;-63
2022/01/25 13:23:03;;;;;;;0.50;0.50;;;;;;;;;;5074343;28;20163;-63
2022/01/25 13:25:44;;;;;;;0.50;0.50;;;;;;;;;;5074611;28;20188;-63
2022/01/25 13:28:31;;;;;;;0.40;0.40;;;;;;;;;;5074771;28;20190;-63
2022/01/25 13:30:57;;;;;;;0.50;0.50;;;;;;;;;;5074662;28;20278;-63
2022/01/25 13:33:23;;;;;;;0.50;0.50;;;;;;;;;;5056370;28;20218;-63
2022/01/25 13:35:53;;;;;;;0.40;0.40;;;;;;;;;;5074472;28;20831;-63
2022/01/25 13:38:30;;;;;;;0.50;0.50;;;;;;;;;;5074359;28;20750;-63
2022/01/25 13:46:25;;;;;;;0.50;0.50;;;;;;;;;;5074298;28;20274;-63
2022/01/25 13:48:53;;;;;;;0.50;0.50;;;;;;;;;;5074100;28;20175;-63
2022/01/25 13:51:20;;;;;;;0.50;0.50;;;;;;;;;;5074236;28;20285;-63
2022/01/25 13:53:51;;;;;;;0.50;0.50;;;;;;;;;;5074056;28;20175;-63
2022/01/25 13:56:18;;;;;;;0.50;0.50;;;;;;;;;;5073997;28;20190;-63
2022/01/25 13:58:49;;;;;;;0.60;0.60;;;;;;;;;;5074017;28;20175;-63
2022/01/25 14:01:17;;;;;;;0.50;0.50;;;;;;;;;;5074292;28;20576;-63
2022/01/25 14:03:45;;;;;;;0.50;0.50;;;;;;;;;;5073823;28;20174;-63
2022/01/25 14:06:30;;;;;;;0.50;0.50;;;;;;;;;;5074138;28;20716;-63
2022/01/25 14:09:02;;;;;;;0.50;0.50;;;;;;;;;;5073889;28;20208;-63
2022/01/25 14:11:39;;;;;;;0.47;0.47;;;;;;;;;;5074036;28;20242;-63
2022/01/25 14:22:45;;;;;;;0.50;0.50;;;;;;;;;;5073644;28;20593;-62
2022/01/25 14:25:11;;;;;;;0.50;0.50;;;;;;;;;;5073699;28;20202;-63
2022/01/25 14:27:50;;;;;;;0.50;0.50;;;;;;;;;;5073562;28;20178;-63
2022/01/25 14:30:17;;;;;;;0.40;0.40;;;;;;;;;;5073904;28;20653;-63
2022/01/25 14:32:43;;;;;;;0.47;0.47;;;;;;;;;;5072444;28;20577;-63
2022/01/25 14:35:12;;;;;;;0.60;0.60;;;;;;;;;;5073474;28;20193;-63
2022/01/25 14:37:46;;;;;;;0.60;0.60;;;;;;;;;;5073334;28;20424;-63
2022/01/25 14:40:13;;;;;;;0.57;0.57;;;;;;;;;;5073364;28;20173;-63
2022/01/25 14:42:43;;;;;;;0.60;0.60;;;;;;;;;;5073025;28;20178;-63
2022/01/25 14:45:13;;;;;;;0.60;0.60;;;;;;;;;;5073225;28;20208;-63
2022/01/25 14:47:42;;;;;;;0.60;0.60;;;;;;;;;;5073177;28;20174;-63
2022/01/25 14:50:16;;;;;;;0.52;0.52;;;;;;;;;;5073170;28;20170;-63
2022/01/25 14:52:42;;;;;;;0.60;0.60;;;;;;;;;;5072681;28;20674;-63
2022/01/25 14:55:19;;;;;;;0.50;0.50;;;;;;;;;;5073009;28;20204;-63
2022/01/25 14:58:02;;;;;;;0.50;0.50;;;;;;;;;;5055005;28;20408;-63
2022/01/25 15:00:28;;;;;;;0.50;0.50;;;;;;;;;;5073032;28;20255;-63
2022/01/25 15:02:54;;;;;;;0.60;0.60;;;;;;;;;;5072699;28;20205;-63
2022/01/25 15:05:21;;;;;;;0.60;0.60;;;;;;;;;;5072689;28;20637;-63
2022/01/25 15:07:47;;;;;;;0.50;0.50;;;;;;;;;;5072762;28;20398;-63
2022/01/25 15:10:19;;;;;;;0.50;0.50;;;;;;;;;;5072885;28;20652;-63
2022/01/25 15:12:48;;;;;;;0.50;0.50;;;;;;;;;;5072330;28;20209;-63
2022/01/25 15:15:25;;;;;;;0.60;0.60;;;;;;;;;;5071803;28;20704;-63
2022/01/25 15:17:51;;;;;;;0.50;0.50;;;;;;;;;;5072584;28;20159;-63
2022/01/25 15:20:17;;;;;;;0.50;0.50;;;;;;;;;;5072673;28;20636;-63
2022/01/25 15:22:44;;;;;;;0.50;0.50;;;;;;;;;;5072363;28;20174;-63
2022/01/25 15:25:13;;;;;;;0.50;0.50;;;;;;;;;;5072434;28;20204;-63
2022/01/25 15:27:39;;;;;;;0.50;0.50;;;;;;;;;;5072623;28;20174;-63
2022/01/25 15:30:06;;;;;;;0.60;0.60;;;;;;;;;;5071059;28;20178;-63
2022/01/25 15:32:32;;;;;;;0.70;0.70;;;;;;;;;;5072146;28;20203;-63
2022/01/25 15:34:58;;;;;;;0.50;0.50;;;;;;;;;;5072374;28;20602;-63
2022/01/25 15:37:24;;;;;;;0.60;0.60;;;;;;;;;;5072367;28;20497;-63
2022/01/25 15:39:50;;;;;;;0.50;0.50;;;;;;;;;;5072273;28;20408;-63
2022/01/25 15:42:18;;;;;;;0.50;0.50;;;;;;;;;;5072190;28;20172;-63
2022/01/25 15:44:46;;;;;;;0.57;0.57;;;;;;;;;;5071731;28;20174;-63
2022/01/25 15:47:13;;;;;;;0.60;0.60;;;;;;;;;;5070810;28;20183;-63
2022/01/25 15:49:41;;;;;;;0.70;0.70;;;;;;;;;;5070848;28;20183;-63
2022/01/25 15:52:07;;;;;;;0.60;0.60;;;;;;;;;;5071512;28;20285;-63
2022/01/25 15:54:33;;;;;;;0.60;0.60;;;;;;;;;;5071865;28;20168;-63
2022/01/25 15:56:59;;;;;;;0.60;0.60;;;;;;;;;;5071907;28;20175;-63
2022/01/25 15:59:25;;;;;;;0.60;0.60;;;;;;;;;;5072067;28;20173;-63
2022/01/25 16:01:53;;;;;;;0.50;0.50;;;;;;;;;;5072236;28;20791;-63
2022/01/25 16:04:29;;;;;;;0.50;0.50;;;;;;;;;;5071669;28;20403;-64
2022/01/25 16:06:57;;;;;;;0.70;0.70;;;;;;;;;;5071631;28;20586;-63
2022/01/25 16:09:23;;;;;;;0.70;0.70;;;;;;;;;;5071568;28;20169;-63
2022/01/25 16:11:49;;;;;;;0.60;0.60;;;;;;;;;;5071546;28;20197;-63
2022/01/25 16:14:16;;;;;;;0.60;0.60;;;;;;;;;;5071637;28;20200;-63
2022/01/25 16:16:46;;;;;;;0.60;0.60;;;;;;;;;;5071654;28;20197;-63
2022/01/25 16:19:12;;;;;;;0.60;0.60;;;;;;;;;;5071471;28;20207;-63
2022/01/25 16:21:38;;;;;;;0.60;0.60;;;;;;;;;;5071583;28;20202;-63
2022/01/25 16:24:05;;;;;;;0.60;0.60;;;;;;;;;;5071111;28;20409;-63
2022/01/25 16:26:32;;;;;;;0.60;0.60;;;;;;;;;;5071399;28;20214;-63
2022/01/25 16:28:58;;;;;;;0.50;0.50;;;;;;;;;;5071477;28;20171;-63
2022/01/25 16:31:32;;;;;;;0.60;0.60;;;;;;;;;;5071452;28;20255;-63
2022/01/25 16:33:59;;;;;;;0.60;0.60;;;;;;;;;;5071764;28;20393;-63
2022/01/25 16:36:25;;;;;;;0.60;0.60;;;;;;;;;;5071388;28;20610;-63
2022/01/25 16:38:51;;;;;;;0.50;0.50;;;;;;;;;;5071366;28;20200;-63
2022/01/25 16:41:17;;;;;;;0.50;0.50;;;;;;;;;;5071513;28;20267;-63
2022/01/25 16:43:44;;;;;;;0.60;0.60;;;;;;;;;;5071199;28;20171;-63
2022/01/25 16:46:11;;;;;;;0.60;0.60;;;;;;;;;;5071283;28;20217;-63
2022/01/25 16:48:37;;;;;;;0.50;0.50;;;;;;;;;;5071268;28;20672;-63
2022/01/25 16:51:03;;;;;;;0.60;0.60;;;;;;;;;;5071327;28;20662;-63
2022/01/25 16:53:29;;;;;;;0.60;0.60;;;;;;;;;;5070907;28;20179;-63
2022/01/25 16:55:55;;;;;;;0.60;0.60;;;;;;;;;;5073321;28;20558;-63
2022/01/25 16:58:21;;;;;;;0.60;0.60;;;;;;;;;;5075365;28;20180;-63
2022/01/25 17:00:48;;;;;;;0.50;0.50;;;;;;;;;;5073974;28;20909;-63
2022/01/25 17:03:14;;;;;;;0.50;0.50;;;;;;;;;;5075032;28;20206;-63